createdAt,value
2022-12-20T00:01:25.545Z,94841.75
2022-12-20T00:06:29.789Z,94847.56
2022-12-20T00:11:33.343Z,94845.34
2022-12-20T00:16:37.718Z,94843.22
2022-12-20T00:21:41.304Z,94830.25
2022-12-20T00:26:44.862Z,94834.06
2022-12-20T00:31:48.645Z,94832.16
2022-12-20T00:36:52.133Z,94842.44
2022-12-20T00:41:55.569Z,94834.84
2022-12-20T00:47:01.765Z,94847.56
2022-12-20T00:52:05.834Z,94846.47
2022-12-20T00:57:09.558Z,94836.13
2022-12-20T01:02:12.828Z,94845.00
2022-12-20T01:07:16.560Z,94838.00
2022-12-20T01:12:20.293Z,94838.50
2022-12-20T01:17:23.257Z,94830.53
2022-12-20T01:22:27.433Z,94833.50
2022-12-20T01:27:30.971Z,94831.44
2022-12-20T01:32:34.709Z,94824.72
2022-12-20T01:37:38.080Z,94824.13
2022-12-20T01:42:41.101Z,94816.81
2022-12-20T01:47:44.164Z,94810.75
2022-12-20T01:52:48.330Z,94813.31
2022-12-20T01:58:02.249Z,94803.03
2022-12-20T02:03:08.727Z,94802.44
2022-12-20T02:08:15.252Z,94797.44
2022-12-20T02:13:42.058Z,94793.13
2022-12-20T02:19:18.837Z,94785.94
2022-12-20T02:24:47.312Z,94775.66
2022-12-20T02:30:21.450Z,94776.75
2022-12-20T02:35:33.696Z,94767.16
2022-12-20T02:40:42.752Z,94760.44
2022-12-20T02:45:46.483Z,94754.75
2022-12-20T02:50:53.435Z,94741.59
2022-12-20T02:56:10.797Z,94750.19
2022-12-20T03:01:25.565Z,94741.59
2022-12-20T03:06:31.192Z,94746.38
2022-12-20T03:11:34.898Z,94736.09
2022-12-20T03:16:38.687Z,94738.78
2022-12-20T03:21:43.871Z,94739.00
2022-12-20T03:26:49.199Z,94737.19
2022-12-20T03:31:56.101Z,94734.38
2022-12-20T03:36:59.382Z,94740.50
2022-12-20T03:42:03.074Z,94745.09
2022-12-20T03:47:06.786Z,94741.00
2022-12-20T03:52:13.777Z,94740.50
2022-12-20T03:57:17.072Z,94748.69
2022-12-20T04:02:23.306Z,94746.28
2022-12-20T04:07:27.991Z,94749.00
2022-12-20T04:12:31.051Z,94748.88
2022-12-20T04:17:34.967Z,94745.88
2022-12-20T04:22:39.246Z,94744.78
2022-12-20T04:27:43.244Z,94739.19
2022-12-20T04:32:46.898Z,94758.28
2022-12-20T04:37:51.981Z,94752.97
2022-12-20T04:42:55.477Z,94756.19
2022-12-20T04:48:14.769Z,94746.38
2022-12-20T04:53:42.840Z,94764.34
2022-12-20T04:58:47.982Z,94749.97
2022-12-20T05:03:52.250Z,94760.94
2022-12-20T05:08:56.303Z,94758.38
2022-12-20T05:14:00.736Z,94750.38
2022-12-20T05:19:05.189Z,94766.47
2022-12-20T05:24:32.587Z,94741.50
2022-12-20T05:29:56.946Z,94758.16
2022-12-20T05:35:01.198Z,94756.56
2022-12-20T05:40:08.345Z,94743.38
2022-12-20T05:45:12.265Z,94751.00
2022-12-20T05:50:26.801Z,94747.59
2022-12-20T05:56:02.008Z,94753.97
2022-12-20T06:01:10.702Z,94740.09
2022-12-20T06:06:15.514Z,94731.31
2022-12-20T06:11:29.418Z,94755.88
2022-12-20T06:16:40.643Z,94752.56
2022-12-20T06:21:46.660Z,94757.56
2022-12-20T06:26:52.909Z,94751.59
2022-12-20T06:31:57.808Z,94750.56
2022-12-20T06:37:01.628Z,94745.09
2022-12-20T06:42:09.033Z,94753.72
2022-12-20T06:47:15.123Z,94743.84
2022-12-20T06:52:19.189Z,94706.09
2022-12-20T06:57:25.689Z,94740.16
2022-12-20T07:02:31.596Z,94749.91
2022-12-20T07:07:42.777Z,94754.00
2022-12-20T07:12:48.798Z,94752.09
2022-12-20T07:17:52.424Z,94731.56
2022-12-20T07:22:56.417Z,94734.34
2022-12-20T07:28:00.306Z,94731.59
2022-12-20T07:33:03.803Z,94732.75
2022-12-20T07:38:07.045Z,94732.22
2022-12-20T07:43:11.007Z,94731.34
2022-12-20T07:48:17.969Z,94727.25
2022-12-20T07:53:25.905Z,94724.34
2022-12-20T07:58:34.010Z,94722.50
2022-12-20T08:03:43.831Z,94721.69
2022-12-20T08:08:52.060Z,94727.38
2022-12-20T08:13:58.388Z,94722.66
2022-12-20T08:19:02.241Z,94718.31
2022-12-20T08:24:05.735Z,94736.59
2022-12-20T08:29:10.138Z,94736.38
2022-12-20T08:34:14.498Z,94737.84
2022-12-20T08:39:18.592Z,94736.19
2022-12-20T08:44:22.153Z,94735.63
2022-12-20T08:49:25.843Z,94737.66
2022-12-20T08:54:29.355Z,94734.97
2022-12-20T08:59:32.856Z,94733.16
2022-12-20T09:04:36.355Z,94725.00
2022-12-20T09:09:39.613Z,94728.25
2022-12-20T09:14:43.366Z,94736.25
2022-12-20T09:19:47.543Z,94736.56
2022-12-20T09:24:50.849Z,94733.84
2022-12-20T09:29:54.460Z,94735.94
2022-12-20T09:34:57.523Z,94725.63
2022-12-20T09:40:00.664Z,94728.63
2022-12-20T09:45:10.651Z,94720.13
2022-12-20T09:50:18.229Z,94679.91
2022-12-20T09:55:24.852Z,94707.56
2022-12-20T10:00:30.542Z,94699.09
2022-12-20T10:05:46.850Z,94676.44
2022-12-20T10:10:56.464Z,94665.00
2022-12-20T10:16:05.202Z,94667.88
2022-12-20T10:21:18.506Z,94672.88
2022-12-20T10:26:26.302Z,94678.56
2022-12-20T10:31:36.708Z,94668.16
2022-12-20T10:36:46.534Z,94648.38
2022-12-20T10:41:58.770Z,94650.88
2022-12-20T10:47:46.826Z,94642.09
2022-12-20T10:53:16.683Z,94633.91
2022-12-20T10:58:33.903Z,94629.84
2022-12-20T11:03:58.478Z,94620.41
2022-12-20T11:09:24.592Z,94614.72
2022-12-20T11:14:32.882Z,94617.09
2022-12-20T11:19:59.287Z,94613.22
2022-12-20T11:25:30.150Z,94601.75
2022-12-20T11:30:48.739Z,94595.78
2022-12-20T11:36:12.465Z,94585.94
2022-12-20T11:41:40.316Z,94576.19
2022-12-20T11:46:59.308Z,94575.44
2022-12-20T11:52:26.488Z,94565.19
2022-12-20T11:57:54.883Z,94562.84
2022-12-20T12:03:04.729Z,94546.66
2022-12-20T12:08:18.632Z,94547.44
2022-12-20T12:13:31.452Z,94542.69
2022-12-20T12:18:36.935Z,94517.75
2022-12-20T12:23:47.910Z,94535.44
2022-12-20T12:29:03.379Z,94529.50
2022-12-20T12:34:15.926Z,94536.53
2022-12-20T12:39:37.648Z,94531.22
2022-12-20T12:44:47.420Z,94530.88
2022-12-20T12:49:53.635Z,94532.84
2022-12-20T12:54:57.179Z,94519.88
2022-12-20T13:00:00.724Z,94521.91
2022-12-20T13:05:09.334Z,94524.00
2022-12-20T13:10:15.754Z,94525.72
2022-12-20T13:15:22.493Z,94525.38
2022-12-20T13:20:29.180Z,94522.94
2022-12-20T13:25:52.063Z,94516.91
2022-12-20T13:31:04.987Z,94518.16
2022-12-20T13:36:11.457Z,94511.97
2022-12-20T13:41:35.872Z,94525.34
2022-12-20T13:47:02.369Z,94515.59
2022-12-20T13:52:11.887Z,94514.94
2022-12-20T13:57:25.187Z,94513.06
2022-12-20T14:02:34.933Z,94518.66
2022-12-20T14:07:39.111Z,94503.63
2022-12-20T14:12:46.465Z,94504.66
2022-12-20T14:17:50.184Z,94507.03
2022-12-20T14:23:05.591Z,94496.16
2022-12-20T14:28:26.448Z,94499.16
2022-12-20T14:33:34.900Z,94502.00
2022-12-20T14:38:41.016Z,94489.00
2022-12-20T14:43:56.252Z,94510.34
2022-12-20T14:49:23.911Z,94524.56
2022-12-20T15:00:22.139Z,94511.91
2022-12-20T15:05:34.683Z,94514.59
2022-12-20T15:10:38.769Z,94511.25
2022-12-20T15:15:42.761Z,94511.38
2022-12-20T15:20:50.335Z,94503.19
2022-12-20T15:25:54.108Z,94512.22
2022-12-20T15:30:57.407Z,94512.38
2022-12-20T15:36:01.066Z,94511.31
2022-12-20T15:41:06.491Z,94505.03
2022-12-20T15:46:11.432Z,94508.72
2022-12-20T15:51:24.864Z,94518.59
2022-12-20T15:56:29.722Z,94507.78
2022-12-20T16:01:40.996Z,94497.16
2022-12-20T16:06:48.214Z,94511.41
2022-12-20T16:11:51.892Z,94506.50
2022-12-20T16:16:55.585Z,94507.19
2022-12-20T16:21:59.291Z,94501.09
2022-12-20T16:27:02.670Z,94502.69
2022-12-20T16:32:24.817Z,94501.63
2022-12-20T16:37:30.230Z,94503.66
2022-12-20T16:42:37.157Z,94510.25
2022-12-20T16:47:41.440Z,94502.63
2022-12-20T16:52:45.139Z,94507.44
2022-12-20T16:57:49.283Z,94499.81
2022-12-20T17:02:53.303Z,94504.41
2022-12-20T17:07:58.003Z,94515.06
2022-12-20T17:13:02.111Z,94500.63
2022-12-20T17:18:05.878Z,94513.34
2022-12-20T17:23:16.202Z,94513.56
2022-12-20T17:28:20.505Z,94502.38
2022-12-20T17:33:24.388Z,94513.09
2022-12-20T17:38:29.579Z,94516.97
2022-12-20T17:43:34.030Z,94526.97
2022-12-20T17:48:43.583Z,94522.84
2022-12-20T17:53:58.931Z,94527.16
2022-12-20T17:59:04.928Z,94527.69
2022-12-20T18:04:11.439Z,94544.06
2022-12-20T18:09:17.967Z,94529.69
2022-12-20T18:14:21.598Z,94528.38
2022-12-20T18:19:25.003Z,94530.97
2022-12-20T18:24:29.247Z,94545.88
2022-12-20T18:29:32.985Z,94548.63
2022-12-20T18:34:36.662Z,94548.81
2022-12-20T18:39:40.910Z,94543.78
2022-12-20T18:44:44.653Z,94538.59
2022-12-20T18:49:48.158Z,94547.34
2022-12-20T18:54:52.029Z,94550.25
2022-12-20T18:59:55.984Z,94554.72
2022-12-20T19:04:59.556Z,94545.81
2022-12-20T19:10:03.343Z,94541.69
2022-12-20T19:15:07.916Z,94539.28
2022-12-20T19:20:11.410Z,94542.41
2022-12-20T19:25:15.496Z,94521.25
2022-12-20T19:30:19.600Z,94536.28
2022-12-20T19:35:54.389Z,94527.25
2022-12-20T19:40:54.035Z,94513.41
2022-12-20T19:45:58.647Z,94528.69
2022-12-20T19:51:10.592Z,94522.50
2022-12-20T19:56:17.368Z,94532.69
2022-12-20T20:01:25.455Z,94523.94
2022-12-20T20:06:29.600Z,94521.88
2022-12-20T20:11:33.148Z,94525.25
2022-12-20T20:16:38.332Z,94516.47
2022-12-20T20:21:42.475Z,94527.13
2022-12-20T20:26:46.231Z,94523.31
2022-12-20T20:31:50.114Z,94505.31
2022-12-20T20:36:53.695Z,94519.50
2022-12-20T20:41:57.222Z,94513.28
2022-12-20T20:47:01.281Z,94511.38
2022-12-20T20:52:05.011Z,94484.91
2022-12-20T20:57:09.127Z,94495.91
2022-12-20T21:02:15.427Z,94492.88
2022-12-20T21:07:19.607Z,94485.25
2022-12-20T21:12:23.186Z,94488.38
2022-12-20T21:17:26.993Z,94491.88
2022-12-20T21:22:32.329Z,94480.94
2022-12-20T21:27:36.447Z,94488.28
2022-12-20T21:32:40.720Z,94490.31
2022-12-20T21:37:44.532Z,94486.50
2022-12-20T21:42:48.052Z,94485.56
2022-12-20T21:47:51.185Z,94482.22
2022-12-20T21:52:54.745Z,94481.13
2022-12-20T21:57:58.413Z,94474.09
2022-12-20T22:03:02.427Z,94479.22
2022-12-20T22:08:05.596Z,94467.28
2022-12-20T22:13:10.519Z,94456.78
2022-12-20T22:18:14.764Z,94475.94
2022-12-20T22:23:18.541Z,94468.56
2022-12-20T22:28:22.723Z,94462.34
2022-12-20T22:33:26.603Z,94451.50
2022-12-20T22:38:31.410Z,94441.38
2022-12-20T22:43:35.537Z,94446.69
2022-12-20T22:48:40.686Z,94438.56
2022-12-20T22:53:44.486Z,94446.09
2022-12-20T22:58:48.838Z,94437.56
2022-12-20T23:03:52.710Z,94433.25
2022-12-20T23:08:56.407Z,94432.81
2022-12-20T23:14:18.678Z,94431.88
2022-12-20T23:19:22.523Z,94403.22
2022-12-20T23:24:25.902Z,94415.50
2022-12-20T23:29:30.562Z,94402.63
2022-12-20T23:34:35.280Z,94398.63
2022-12-20T23:39:38.994Z,94396.81
2022-12-20T23:44:42.500Z,94391.06
2022-12-20T23:49:46.844Z,94379.16
2022-12-20T23:54:50.590Z,94382.19
2022-12-20T23:59:53.667Z,94376.75
